Terminal Aerodrome Forecast
Issued by NWS

Home | Current Version | Previous Version | Text Only | Print | Product List | Glossary On
Versions: 1 2 3 4 5 6 7 8 9 10 11 12 13
000
FTUS45 KRIW 022327
TAFBPI
TAF
KBPI 022327Z 0300/0324 26015G24KT P6SM SCT090
     FM030130 20008KT P6SM FEW090 SCT110
     FM030500 VRB06KT P6SM SCT150 WS010/22035KT
     FM031200 VRB06KT P6SM SCT120
     FM031700 21010KT P6SM SCT080
     FM031900 22014G22KT P6SM BKN200=

USA.gov is the U.S. government's official web portal to all federal, state and local government web resources and services.